Time;durP1;ratioP1;P1;durP2;ratioP2;P2;SDS_P1;SDS_P2;PMS_P1;PMS_P2;Temp;Humidity;BMP_temperature;BMP_pressure;BME280_temperature;BME280_humidity;BME280_pressure;Samples;Min_cycle;Max_cycle;Signal;HPM_P1;HPM_P2
2023/03/07 00:01:37;;;;;;;24.05;10.73;;;1.90;99.90;;;;;;5038940;28;25053;-75
2023/03/07 00:04:04;;;;;;;26.05;11.07;;;1.90;99.90;;;;;;5038683;28;25090;-75
2023/03/07 00:06:32;;;;;;;22.90;9.70;;;1.80;99.90;;;;;;5004246;28;25066;-75
2023/03/07 00:09:01;;;;;;;26.85;9.88;;;1.80;99.90;;;;;;5020507;28;25057;-74
2023/03/07 00:11:29;;;;;;;22.75;11.05;;;1.80;99.90;;;;;;5038504;28;25072;-74
2023/03/07 00:13:56;;;;;;;27.50;11.00;;;1.80;99.90;;;;;;5020402;28;25057;-74
2023/03/07 00:16:24;;;;;;;15.98;7.47;;;1.80;99.90;;;;;;5037946;28;25070;-74
2023/03/07 00:18:52;;;;;;;25.88;10.93;;;1.80;99.90;;;;;;5037870;28;25066;-74
2023/03/07 00:21:21;;;;;;;25.38;10.05;;;1.80;99.90;;;;;;5038304;28;25127;-74
2023/03/07 00:23:51;;;;;;;24.45;11.25;;;1.70;99.90;;;;;;5038352;28;25066;-75
2023/03/07 00:26:24;;;;;;;24.10;11.32;;;1.80;99.90;;;;;;5037744;28;25112;-75
2023/03/07 00:28:52;;;;;;;26.67;11.20;;;1.70;99.90;;;;;;5037684;28;25071;-75
2023/03/07 00:31:21;;;;;;;26.80;11.43;;;1.70;99.90;;;;;;5038338;28;25065;-75
2023/03/07 00:33:49;;;;;;;24.10;10.75;;;1.70;99.90;;;;;;5037587;28;25097;-74
2023/03/07 00:36:19;;;;;;;23.75;10.40;;;1.70;99.90;;;;;;5037874;28;25068;-74
2023/03/07 00:38:47;;;;;;;22.60;9.82;;;1.70;99.90;;;;;;5037526;28;25092;-74
2023/03/07 00:41:17;;;;;;;27.13;10.77;;;1.70;99.90;;;;;;5038194;28;25134;-74
2023/03/07 00:43:45;;;;;;;27.80;10.60;;;1.70;99.90;;;;;;5037376;28;25102;-74
2023/03/07 00:46:14;;;;;;;20.45;8.55;;;1.70;99.90;;;;;;5037593;28;25099;-74
2023/03/07 00:48:42;;;;;;;17.30;7.40;;;1.70;99.90;;;;;;5036277;28;25095;-74
2023/03/07 00:51:12;;;;;;;20.33;8.85;;;1.60;99.90;;;;;;5037438;28;25144;-74
2023/03/07 00:53:40;;;;;;;15.77;8.10;;;1.60;99.90;;;;;;5037275;28;25077;-74
2023/03/07 00:56:20;;;;;;;22.77;9.73;;;1.60;99.90;;;;;;5037141;28;25069;-74
2023/03/07 00:58:47;;;;;;;18.75;7.80;;;1.60;99.90;;;;;;5019590;28;25066;-74
2023/03/07 01:01:20;;;;;;;20.60;8.93;;;1.60;99.90;;;;;;5037422;28;25096;-74
2023/03/07 01:03:48;;;;;;;17.80;8.13;;;1.60;99.90;;;;;;5019541;28;25150;-74
2023/03/07 01:06:18;;;;;;;18.85;8.73;;;1.60;99.90;;;;;;5037677;28;25111;-75
2023/03/07 01:08:46;;;;;;;12.63;6.72;;;1.60;99.90;;;;;;5036895;28;25076;-74
2023/03/07 01:11:13;;;;;;;17.92;7.63;;;1.70;99.90;;;;;;5036970;28;25054;-74
2023/03/07 01:13:41;;;;;;;10.82;5.00;;;1.70;99.90;;;;;;5036909;28;25102;-74
2023/03/07 01:16:21;;;;;;;13.48;6.47;;;1.70;99.90;;;;;;5037562;28;25073;-74
2023/03/07 01:18:52;;;;;;;15.35;6.70;;;1.70;99.90;;;;;;5036816;28;25085;-74
2023/03/07 01:21:25;;;;;;;17.75;7.78;;;1.70;99.90;;;;;;5035717;28;25060;-75
2023/03/07 01:23:53;;;;;;;14.80;6.85;;;1.80;99.90;;;;;;5036711;28;25052;-74
2023/03/07 01:26:23;;;;;;;14.45;7.00;;;1.70;99.90;;;;;;5037315;28;25048;-74
2023/03/07 01:28:55;;;;;;;18.52;7.47;;;1.80;99.90;;;;;;5036644;28;25100;-74
2023/03/07 01:31:23;;;;;;;17.55;7.50;;;1.80;99.90;;;;;;5036916;28;25102;-75
2023/03/07 01:33:52;;;;;;;14.95;6.75;;;1.80;99.90;;;;;;5036524;28;25060;-74
2023/03/07 01:36:28;;;;;;;13.10;5.78;;;1.80;99.90;;;;;;5036704;28;25055;-74
2023/03/07 01:39:05;;;;;;;14.60;6.40;;;1.80;99.90;;;;;;5036274;28;25152;-74
2023/03/07 01:41:35;;;;;;;17.80;8.00;;;1.80;99.90;;;;;;5037088;28;25066;-74
2023/03/07 01:44:05;;;;;;;15.80;7.18;;;1.80;99.90;;;;;;5045367;28;25072;-74
2023/03/07 01:46:52;;;;;;;13.35;5.95;;;1.80;99.90;;;;;;5056466;28;25075;-74
2023/03/07 01:49:36;;;;;;;13.43;5.47;;;1.80;99.90;;;;;;5056286;28;25143;-74
2023/03/07 01:52:27;;;;;;;10.52;4.95;;;1.80;99.90;;;;;;5056831;28;25075;-74
2023/03/07 01:55:16;;;;;;;12.23;5.70;;;1.80;99.90;;;;;;5056528;28;25124;-74
2023/03/07 01:57:46;;;;;;;14.25;6.80;;;1.80;99.90;;;;;;5056242;28;25067;-74
2023/03/07 02:00:24;;;;;;;15.80;6.88;;;1.80;99.90;;;;;;5055811;28;25066;-74
2023/03/07 02:03:10;;;;;;;12.95;6.00;;;1.90;99.90;;;;;;5056091;28;25143;-74
2023/03/07 02:05:57;;;;;;;12.55;5.75;;;1.90;99.90;;;;;;5055032;28;25069;-74
2023/03/07 02:08:27;;;;;;;12.57;5.88;;;1.90;99.90;;;;;;5056117;28;25052;-74
2023/03/07 02:10:54;;;;;;;12.68;4.53;;;1.90;99.90;;;;;;5055051;28;25125;-74
2023/03/07 02:13:22;;;;;;;13.15;5.18;;;1.90;99.90;;;;;;5056367;28;25069;-74
2023/03/07 02:15:49;;;;;;;10.80;5.05;;;1.90;99.90;;;;;;5054973;28;25071;-74
2023/03/07 02:18:25;;;;;;;12.68;4.65;;;2.00;99.90;;;;;;5056129;28;25116;-74
2023/03/07 02:21:00;;;;;;;10.87;4.80;;;2.00;99.90;;;;;;5055125;28;25119;-74
2023/03/07 02:23:50;;;;;;;12.03;4.83;;;2.00;99.90;;;;;;5056028;28;25087;-74
2023/03/07 02:26:21;;;;;;;10.73;4.75;;;2.10;99.90;;;;;;5054844;28;25113;-74
2023/03/07 02:28:48;;;;;;;16.50;5.47;;;2.10;99.90;;;;;;5056505;28;25065;-74
2023/03/07 02:31:16;;;;;;;8.13;4.95;;;2.10;99.90;;;;;;5056359;28;25069;-74
2023/03/07 02:33:43;;;;;;;9.93;4.75;;;2.20;99.90;;;;;;5054859;28;25070;-74
2023/03/07 02:36:28;;;;;;;7.75;4.00;;;2.20;99.90;;;;;;5054827;28;25072;-74
2023/03/07 02:38:57;;;;;;;8.07;4.28;;;2.20;99.90;;;;;;5055896;28;25095;-74
2023/03/07 02:41:31;;;;;;;9.45;4.05;;;2.30;99.90;;;;;;5056539;28;25094;-74
2023/03/07 02:43:59;;;;;;;10.00;4.18;;;2.30;99.90;;;;;;5054462;28;25068;-74
2023/03/07 02:46:26;;;;;;;9.38;4.65;;;2.30;99.90;;;;;;5056278;28;25073;-74
2023/03/07 02:48:54;;;;;;;6.93;3.22;;;2.40;99.90;;;;;;5056305;28;25105;-74
2023/03/07 02:51:21;;;;;;;9.75;4.25;;;2.40;99.90;;;;;;5056502;28;25100;-74
2023/03/07 02:53:49;;;;;;;8.90;4.03;;;2.40;99.90;;;;;;5054460;28;25086;-74
2023/03/07 02:56:16;;;;;;;9.48;4.57;;;2.40;99.90;;;;;;5055722;28;25061;-74
2023/03/07 02:58:44;;;;;;;8.65;3.97;;;2.40;99.90;;;;;;5056207;28;25097;-74
2023/03/07 03:01:12;;;;;;;7.75;3.80;;;2.40;99.90;;;;;;5056358;28;25101;-74
2023/03/07 03:03:39;;;;;;;5.43;3.03;;;2.40;99.90;;;;;;5055215;28;25093;-74
2023/03/07 03:06:07;;;;;;;8.85;4.15;;;2.50;99.90;;;;;;5054505;28;25063;-74
2023/03/07 03:08:35;;;;;;;8.38;4.20;;;2.50;99.90;;;;;;5054519;28;25063;-74
2023/03/07 03:11:02;;;;;;;6.97;3.85;;;2.50;99.90;;;;;;5056643;28;25082;-74
2023/03/07 03:13:30;;;;;;;7.93;3.70;;;2.50;99.90;;;;;;5059166;28;25059;-74
2023/03/07 03:15:58;;;;;;;7.18;3.97;;;2.50;99.90;;;;;;5058002;28;25097;-74
2023/03/07 03:18:30;;;;;;;7.93;4.20;;;2.50;99.90;;;;;;5058977;28;25115;-74
2023/03/07 03:20:57;;;;;;;7.00;4.07;;;2.50;99.90;;;;;;5057901;28;25055;-74
2023/03/07 03:23:27;;;;;;;9.13;4.97;;;2.60;99.90;;;;;;5058899;28;25152;-74
2023/03/07 03:26:06;;;;;;;8.55;4.50;;;2.60;99.90;;;;;;5059118;28;25063;-74
2023/03/07 03:28:35;;;;;;;10.50;5.45;;;2.60;99.90;;;;;;5058770;28;25071;-74
2023/03/07 03:31:07;;;;;;;7.35;3.80;;;2.60;99.90;;;;;;5059355;28;25067;-74
2023/03/07 03:33:35;;;;;;;8.77;3.95;;;2.60;99.90;;;;;;5058766;28;25066;-74
2023/03/07 03:36:09;;;;;;;9.77;5.35;;;2.60;99.90;;;;;;5059105;28;25060;-74
2023/03/07 03:38:36;;;;;;;8.88;5.22;;;2.70;99.90;;;;;;5059203;28;25111;-74
2023/03/07 03:41:06;;;;;;;10.10;6.03;;;2.70;99.90;;;;;;5058618;28;25122;-74
2023/03/07 03:43:34;;;;;;;10.85;5.82;;;2.70;99.90;;;;;;5047489;28;25123;-74
2023/03/07 03:46:02;;;;;;;15.07;6.15;;;2.80;99.90;;;;;;5039193;28;25061;-74
2023/03/07 03:48:29;;;;;;;10.40;5.43;;;2.80;99.90;;;;;;5038346;28;25046;-74
2023/03/07 03:51:07;;;;;;;8.77;5.40;;;2.80;99.90;;;;;;5038758;28;25058;-75
2023/03/07 03:53:37;;;;;;;12.63;6.60;;;2.80;99.90;;;;;;5038409;28;25055;-74
2023/03/07 03:56:08;;;;;;;9.38;5.18;;;2.80;99.90;;;;;;5021013;28;25125;-74
2023/03/07 03:58:35;;;;;;;16.17;6.05;;;2.80;99.90;;;;;;5038322;28;25081;-74
2023/03/07 04:01:06;;;;;;;11.85;5.28;;;2.80;99.90;;;;;;5038213;28;25108;-74
2023/03/07 04:03:38;;;;;;;8.02;4.43;;;2.90;99.90;;;;;;5038237;28;25068;-74
2023/03/07 04:06:09;;;;;;;9.82;5.30;;;2.90;99.90;;;;;;5038313;28;25080;-74
2023/03/07 04:08:37;;;;;;;11.25;6.05;;;2.90;99.90;;;;;;5020598;28;25062;-74
2023/03/07 04:11:05;;;;;;;12.88;6.22;;;2.90;99.90;;;;;;5038425;28;25070;-74
2023/03/07 04:13:34;;;;;;;7.22;4.10;;;2.90;99.90;;;;;;5037990;28;25082;-74
2023/03/07 04:16:02;;;;;;;8.80;5.03;;;2.90;99.90;;;;;;5038660;28;25084;-74
2023/03/07 04:18:29;;;;;;;8.30;5.20;;;2.90;99.90;;;;;;5037945;28;25108;-74
2023/03/07 04:20:57;;;;;;;12.50;7.15;;;2.90;99.90;;;;;;5020387;28;25104;-74
2023/03/07 04:23:24;;;;;;;12.02;6.38;;;2.90;99.90;;;;;;5037863;28;25077;-74
2023/03/07 04:25:57;;;;;;;10.80;4.47;;;3.00;99.90;;;;;;5020348;28;25083;-74
2023/03/07 04:31:11;;;;;;;9.80;5.95;;;3.00;99.90;;;;;;5037778;28;25066;-74
2023/03/07 04:33:39;;;;;;;13.98;7.15;;;3.00;99.90;;;;;;5037691;28;25058;-74
2023/03/07 04:36:07;;;;;;;12.10;7.38;;;3.00;99.90;;;;;;5037836;28;25108;-74
2023/03/07 04:38:34;;;;;;;12.85;6.38;;;3.00;99.90;;;;;;5037585;28;25078;-74
2023/03/07 04:41:02;;;;;;;8.60;4.65;;;2.90;99.90;;;;;;5037509;28;25070;-74
2023/03/07 04:43:29;;;;;;;10.48;5.93;;;3.00;99.90;;;;;;5037367;28;25084;-74
2023/03/07 04:45:57;;;;;;;8.13;4.28;;;2.90;99.90;;;;;;5019926;28;25053;-74
2023/03/07 04:48:24;;;;;;;9.55;4.88;;;3.00;99.90;;;;;;5019743;28;25128;-74
2023/03/07 04:50:53;;;;;;;10.35;5.47;;;2.90;99.90;;;;;;5037342;28;25119;-74
2023/03/07 04:53:21;;;;;;;12.05;6.45;;;2.90;99.90;;;;;;5037261;28;25073;-74
2023/03/07 04:55:48;;;;;;;8.98;5.00;;;3.00;99.90;;;;;;5037636;28;25072;-74
2023/03/07 04:58:15;;;;;;;9.38;5.18;;;2.90;99.90;;;;;;5019602;28;25120;-74
2023/03/07 05:00:44;;;;;;;12.63;5.20;;;2.90;99.90;;;;;;5019664;28;25060;-74
2023/03/07 05:03:13;;;;;;;13.23;6.05;;;2.90;99.90;;;;;;5037060;28;25114;-74
2023/03/07 05:05:40;;;;;;;13.15;6.25;;;2.90;99.90;;;;;;5037283;28;25078;-74
2023/03/07 05:08:07;;;;;;;14.50;6.88;;;2.90;99.90;;;;;;5037577;28;25086;-74
2023/03/07 05:10:36;;;;;;;14.43;7.07;;;3.00;99.90;;;;;;5037001;28;25071;-74
2023/03/07 05:13:03;;;;;;;12.52;6.65;;;3.00;99.90;;;;;;5036854;28;25064;-74
2023/03/07 05:15:31;;;;;;;11.82;6.65;;;3.00;99.90;;;;;;5036880;28;25094;-74
2023/03/07 05:17:58;;;;;;;10.15;5.80;;;2.90;99.90;;;;;;5037005;28;25060;-74
2023/03/07 05:20:25;;;;;;;9.73;4.97;;;3.00;99.90;;;;;;5037219;28;25072;-74
2023/03/07 05:22:53;;;;;;;11.60;6.95;;;3.00;99.90;;;;;;5036787;28;25106;-74
2023/03/07 05:25:21;;;;;;;13.73;7.03;;;3.00;99.90;;;;;;5036646;28;25083;-74
2023/03/07 05:27:48;;;;;;;10.30;5.95;;;3.00;99.90;;;;;;5019268;28;25078;-74
2023/03/07 05:30:16;;;;;;;9.85;5.15;;;3.00;99.90;;;;;;5037115;28;25088;-74
2023/03/07 05:32:43;;;;;;;10.65;5.47;;;3.00;99.90;;;;;;5036858;28;25069;-74
2023/03/07 05:35:11;;;;;;;10.45;5.45;;;3.00;99.90;;;;;;5035993;28;25130;-74
2023/03/07 05:37:38;;;;;;;10.10;5.13;;;3.00;99.90;;;;;;5036549;28;25085;-74
2023/03/07 05:40:09;;;;;;;11.25;5.47;;;3.10;99.90;;;;;;5036494;28;25063;-74
2023/03/07 05:42:37;;;;;;;10.13;5.38;;;3.10;99.90;;;;;;5036694;28;25077;-74
2023/03/07 05:45:05;;;;;;;13.40;6.55;;;3.10;99.90;;;;;;5036924;28;24874;-74
2023/03/07 05:47:32;;;;;;;8.35;4.07;;;3.00;99.90;;;;;;5018876;28;25161;-74
2023/03/07 05:50:00;;;;;;;6.72;3.25;;;3.00;99.90;;;;;;5018829;28;25119;-74
2023/03/07 05:52:28;;;;;;;6.53;2.85;;;2.90;99.90;;;;;;5037056;28;25082;-74
2023/03/07 05:54:55;;;;;;;4.30;2.10;;;2.70;99.90;;;;;;5036820;28;25081;-74
2023/03/07 05:57:23;;;;;;;5.40;2.72;;;2.50;99.90;;;;;;5036848;28;25059;-74
2023/03/07 05:59:50;;;;;;;5.38;2.60;;;2.30;99.90;;;;;;5036555;28;25062;-74
2023/03/07 06:02:18;;;;;;;5.18;2.97;;;2.20;99.90;;;;;;5036418;28;25090;-74
2023/03/07 06:04:45;;;;;;;6.15;3.13;;;2.20;99.90;;;;;;5018713;28;25122;-74
2023/03/07 06:07:13;;;;;;;8.65;3.70;;;2.10;99.90;;;;;;5036082;28;25056;-74
2023/03/07 06:09:40;;;;;;;6.88;3.10;;;2.00;99.90;;;;;;5018653;28;25062;-74
2023/03/07 06:12:09;;;;;;;8.60;4.03;;;2.00;99.90;;;;;;5018806;28;25073;-74
2023/03/07 06:14:37;;;;;;;6.25;2.97;;;1.90;99.90;;;;;;5036456;28;25092;-74
2023/03/07 06:17:05;;;;;;;7.10;3.33;;;1.90;99.90;;;;;;5002206;28;25081;-74
2023/03/07 06:19:32;;;;;;;6.15;3.10;;;1.90;99.90;;;;;;5036083;28;25128;-74
2023/03/07 06:22:00;;;;;;;7.75;3.63;;;1.90;99.90;;;;;;5036032;28;25097;-74
2023/03/07 06:24:27;;;;;;;7.97;3.92;;;1.90;99.90;;;;;;5036084;28;25057;-74
2023/03/07 06:26:54;;;;;;;8.77;3.63;;;1.90;99.90;;;;;;5036235;28;25055;-74
2023/03/07 06:29:22;;;;;;;9.43;3.42;;;1.90;99.90;;;;;;5036035;28;25092;-74
2023/03/07 06:31:50;;;;;;;8.25;3.75;;;1.90;99.90;;;;;;5036236;28;25130;-74
2023/03/07 06:34:18;;;;;;;8.38;3.53;;;1.80;99.90;;;;;;5018506;28;25060;-74
2023/03/07 06:36:47;;;;;;;7.53;3.40;;;1.80;99.90;;;;;;5018586;28;25077;-74
2023/03/07 06:39:20;;;;;;;6.43;3.00;;;1.80;99.90;;;;;;5035980;28;25142;-74
2023/03/07 06:41:48;;;;;;;6.43;3.25;;;1.80;99.90;;;;;;5036228;28;25066;-74
2023/03/07 06:44:16;;;;;;;7.68;3.35;;;1.90;99.90;;;;;;5035848;28;25115;-74
2023/03/07 06:46:44;;;;;;;7.72;3.42;;;1.90;99.90;;;;;;5039015;28;25099;-75
2023/03/07 06:49:12;;;;;;;6.25;2.72;;;1.90;99.90;;;;;;5039575;28;25060;-75
2023/03/07 06:51:40;;;;;;;8.23;3.00;;;2.00;99.90;;;;;;5039868;28;25134;-75
2023/03/07 06:54:08;;;;;;;8.02;3.35;;;2.00;99.90;;;;;;5040041;28;25108;-75
2023/03/07 06:56:35;;;;;;;13.45;3.17;;;2.00;99.90;;;;;;5039605;28;25101;-75
2023/03/07 06:59:03;;;;;;;4.95;2.38;;;2.00;99.90;;;;;;5039407;28;25066;-76
2023/03/07 07:01:30;;;;;;;5.40;2.85;;;2.00;99.90;;;;;;5039644;28;25089;-75
2023/03/07 07:03:58;;;;;;;6.00;3.63;;;1.90;99.90;;;;;;5022249;28;25051;-76
2023/03/07 07:06:25;;;;;;;6.05;2.65;;;2.00;99.90;;;;;;5039383;28;25072;-75
2023/03/07 07:08:57;;;;;;;6.78;2.88;;;1.90;99.90;;;;;;5039251;28;25081;-76
2023/03/07 07:11:25;;;;;;;6.97;3.28;;;1.90;99.90;;;;;;5039319;28;25119;-81
2023/03/07 07:13:52;;;;;;;5.22;2.67;;;1.90;99.90;;;;;;5038451;28;25079;-82
2023/03/07 07:16:20;;;;;;;5.25;2.53;;;1.80;99.90;;;;;;5021673;28;25061;-81
2023/03/07 07:18:53;;;;;;;4.93;2.40;;;1.80;99.90;;;;;;5039376;28;25108;-81
2023/03/07 07:21:21;;;;;;;6.60;2.50;;;1.80;99.90;;;;;;5039361;28;25151;-77
2023/03/07 07:23:48;;;;;;;4.93;2.53;;;1.80;99.90;;;;;;5039317;28;25096;-78
2023/03/07 07:26:15;;;;;;;5.65;2.33;;;1.80;99.90;;;;;;5039592;28;25073;-80
2023/03/07 07:28:43;;;;;;;2.83;1.40;;;1.80;99.90;;;;;;5038942;28;25108;-79
2023/03/07 07:31:13;;;;;;;4.70;1.80;;;1.80;99.90;;;;;;5040679;28;25082;-82
2023/03/07 07:33:41;;;;;;;4.15;2.15;;;1.80;99.90;;;;;;5040972;28;25104;-80
2023/03/07 07:36:10;;;;;;;3.67;2.03;;;1.80;99.90;;;;;;5038787;28;25067;-82
2023/03/07 07:38:38;;;;;;;5.28;1.80;;;1.80;99.90;;;;;;5021250;28;25145;-83
2023/03/07 07:41:05;;;;;;;5.25;1.70;;;1.70;99.90;;;;;;5021065;28;25066;-81
2023/03/07 07:43:33;;;;;;;5.90;2.05;;;1.70;99.90;;;;;;5037946;28;25074;-85
2023/03/07 07:46:03;;;;;;;5.30;2.00;;;1.60;99.90;;;;;;5058813;28;25061;-85
2023/03/07 07:48:31;;;;;;;4.82;2.00;;;1.60;99.90;;;;;;5056775;28;25054;-83
2023/03/07 07:51:05;;;;;;;4.88;2.17;;;1.50;99.90;;;;;;5058568;28;25084;-79
2023/03/07 07:53:33;;;;;;;4.53;2.50;;;1.50;99.90;;;;;;5058374;28;25054;-73
2023/03/07 07:56:00;;;;;;;4.90;2.58;;;1.40;99.90;;;;;;5058392;28;25139;-73
2023/03/07 07:58:27;;;;;;;4.30;2.08;;;1.40;99.90;;;;;;5056574;28;25116;-73
2023/03/07 08:00:55;;;;;;;8.00;3.10;;;1.40;99.90;;;;;;5058463;28;25159;-74
2023/03/07 08:03:23;;;;;;;4.60;2.30;;;1.30;99.90;;;;;;5058447;28;25108;-74
2023/03/07 08:05:50;;;;;;;5.25;2.67;;;1.30;99.90;;;;;;5057048;28;25121;-74
2023/03/07 08:08:18;;;;;;;5.88;2.38;;;1.30;99.90;;;;;;5057058;28;25146;-72
2023/03/07 08:10:47;;;;;;;5.50;2.65;;;1.40;99.90;;;;;;5057035;28;25077;-75
2023/03/07 08:13:16;;;;;;;6.72;2.30;;;1.40;99.90;;;;;;5058641;28;25069;-74
2023/03/07 08:15:44;;;;;;;16.55;7.57;;;1.40;99.90;;;;;;5058339;28;25054;-74
2023/03/07 08:18:11;;;;;;;8.88;5.03;;;1.40;99.90;;;;;;5057920;28;25094;-75
2023/03/07 08:20:40;;;;;;;6.22;2.53;;;1.40;99.90;;;;;;5057975;28;25075;-83
2023/03/07 08:23:08;;;;;;;5.40;2.58;;;1.40;99.90;;;;;;5057920;28;25078;-76
2023/03/07 08:25:36;;;;;;;4.40;2.22;;;1.30;99.90;;;;;;5058412;28;25066;-75
2023/03/07 08:28:05;;;;;;;5.03;2.60;;;1.30;99.90;;;;;;5057668;28;25093;-74
2023/03/07 08:30:35;;;;;;;5.30;2.30;;;1.30;99.90;;;;;;5057660;28;25133;-73
2023/03/07 08:33:03;;;;;;;7.25;2.50;;;1.20;99.90;;;;;;5057489;28;25093;-74
2023/03/07 08:35:31;;;;;;;4.65;2.58;;;1.20;99.90;;;;;;5057962;28;25055;-74
2023/03/07 08:37:59;;;;;;;6.15;2.30;;;1.20;99.90;;;;;;5058070;28;25093;-74
2023/03/07 08:40:28;;;;;;;4.47;2.25;;;1.20;99.90;;;;;;5057514;28;25077;-74
2023/03/07 08:42:57;;;;;;;5.13;2.40;;;1.20;99.90;;;;;;5052278;28;25079;-75
2023/03/07 08:45:25;;;;;;;5.53;2.42;;;1.20;99.90;;;;;;5037554;28;25085;-76
2023/03/07 08:47:55;;;;;;;4.60;2.20;;;1.20;99.90;;;;;;5037652;28;25080;-73
2023/03/07 08:50:25;;;;;;;6.28;2.42;;;1.20;99.90;;;;;;5037342;28;25105;-74
2023/03/07 08:52:53;;;;;;;4.22;2.30;;;1.20;99.90;;;;;;5037292;28;25085;-73
2023/03/07 08:55:20;;;;;;;7.65;2.45;;;1.20;99.90;;;;;;5037191;28;25069;-74
2023/03/07 08:57:47;;;;;;;4.13;2.20;;;1.30;99.90;;;;;;5037219;28;25141;-74
2023/03/07 09:00:16;;;;;;;3.80;1.90;;;1.30;99.90;;;;;;5037167;28;25077;-75
2023/03/07 09:02:45;;;;;;;3.92;2.25;;;1.40;99.90;;;;;;5037431;28;25094;-75
2023/03/07 09:05:12;;;;;;;5.00;2.15;;;1.50;99.90;;;;;;5037020;28;25062;-75
2023/03/07 09:07:41;;;;;;;4.38;2.08;;;1.60;99.90;;;;;;5019894;28;25076;-74
2023/03/07 09:10:10;;;;;;;5.20;2.78;;;1.60;99.90;;;;;;5036175;28;25070;-75
2023/03/07 09:12:38;;;;;;;3.67;1.70;;;1.70;99.90;;;;;;5036869;28;25077;-74
2023/03/07 09:15:07;;;;;;;3.58;2.00;;;1.80;99.90;;;;;;5019352;28;25071;-74
2023/03/07 09:17:35;;;;;;;4.85;2.13;;;1.80;99.90;;;;;;5036876;28;25076;-75
2023/03/07 09:20:06;;;;;;;3.50;1.70;;;1.80;99.90;;;;;;5036791;28;25138;-74
2023/03/07 09:22:33;;;;;;;4.72;2.15;;;1.90;99.90;;;;;;5036751;28;25067;-74
2023/03/07 09:25:02;;;;;;;3.22;1.60;;;1.90;99.90;;;;;;5036746;28;25089;-75
2023/03/07 09:27:30;;;;;;;3.15;1.58;;;1.90;99.90;;;;;;5036616;28;25067;-73
2023/03/07 09:29:57;;;;;;;3.42;1.85;;;1.90;99.90;;;;;;5019170;28;25050;-75
2023/03/07 09:32:24;;;;;;;2.45;1.08;;;1.90;99.90;;;;;;5036802;28;25078;-75
2023/03/07 09:34:52;;;;;;;2.05;0.95;;;2.00;99.90;;;;;;5036571;28;25057;-74
2023/03/07 09:37:19;;;;;;;1.60;0.80;;;2.00;99.90;;;;;;5035500;28;25126;-75
2023/03/07 09:39:49;;;;;;;1.85;0.90;;;2.10;99.90;;;;;;5036808;28;25108;-75
2023/03/07 09:42:58;;;;;;;1.85;0.90;;;2.10;99.90;;;;;;5036628;28;25108;-74
2023/03/07 09:45:38;;;;;;;2.03;0.85;;;2.10;99.90;;;;;;5039066;28;25075;-76
2023/03/07 09:48:08;;;;;;;2.47;1.10;;;2.20;99.90;;;;;;5056656;28;25127;-77
2023/03/07 09:50:49;;;;;;;2.10;0.55;;;2.30;99.90;;;;;;5056794;28;25070;-75
2023/03/07 09:53:31;;;;;;;3.47;0.73;;;2.30;99.90;;;;;;5056564;28;25077;-76
2023/03/07 09:56:03;;;;;;;4.32;0.90;;;2.40;99.90;;;;;;5056556;28;25062;-76
2023/03/07 09:58:32;;;;;;;2.83;0.90;;;2.40;99.90;;;;;;5056486;28;25109;-76
2023/03/07 10:01:00;;;;;;;3.70;1.25;;;2.40;99.90;;;;;;5056388;28;25056;-76
2023/03/07 10:03:38;;;;;;;1.55;0.70;;;2.40;99.90;;;;;;5056786;28;25083;-75
2023/03/07 10:06:24;;;;;;;1.48;0.70;;;2.30;99.90;;;;;;5056088;28;25056;-73
2023/03/07 10:08:53;;;;;;;3.97;2.00;;;2.30;99.90;;;;;;5056446;28;25061;-73
2023/03/07 10:11:39;;;;;;;4.28;1.00;;;2.30;99.90;;;;;;5038425;28;25077;-73
2023/03/07 10:14:39;;;;;;;1.53;0.70;;;2.20;99.90;;;;;;5056402;28;25084;-74
2023/03/07 10:17:36;;;;;;;3.15;0.98;;;2.10;99.90;;;;;;5056380;28;25079;-75
2023/03/07 10:20:29;;;;;;;1.75;0.80;;;2.00;99.90;;;;;;5019675;28;25072;-72
2023/03/07 10:23:19;;;;;;;2.20;0.80;;;2.00;99.90;;;;;;5060020;28;25099;-75
2023/03/07 10:26:02;;;;;;;5.80;0.80;;;1.90;99.90;;;;;;5060463;28;25102;-75
2023/03/07 10:28:32;;;;;;;4.10;0.93;;;1.80;99.90;;;;;;5060007;28;25108;-75
2023/03/07 10:31:10;;;;;;;1.95;0.90;;;1.70;99.90;;;;;;5060214;28;25086;-75
2023/03/07 10:33:43;;;;;;;1.77;0.68;;;1.70;99.90;;;;;;5060226;28;25110;-77
2023/03/07 10:36:29;;;;;;;3.10;1.13;;;1.70;99.90;;;;;;5060007;28;25080;-75
2023/03/07 10:39:15;;;;;;;1.90;0.90;;;1.70;99.90;;;;;;5041591;28;25082;-75
2023/03/07 10:41:42;;;;;;;;;;;1.70;99.90;;;;;;5060453;28;25063;-73
2023/03/07 10:44:17;;;;;;;2.10;0.73;;;1.70;99.90;;;;;;5053589;28;25099;-74
2023/03/07 10:46:45;;;;;;;1.58;0.80;;;1.70;99.90;;;;;;5059683;28;25071;-73
2023/03/07 10:49:17;;;;;;;0.80;0.50;;;1.80;99.90;;;;;;5058510;28;25080;-78
2023/03/07 10:51:53;;;;;;;1.92;0.75;;;1.80;99.90;;;;;;5060167;28;25057;-74
2023/03/07 10:54:21;;;;;;;;;;;1.90;99.90;;;;;;5059975;28;25105;-75
2023/03/07 10:57:11;;;;;;;1.80;0.70;;;1.90;99.90;;;;;;5059954;28;24071;-75
2023/03/07 10:59:49;;;;;;;2.17;0.90;;;2.00;99.90;;;;;;5059700;28;25059;-74
2023/03/07 11:02:29;;;;;;;2.67;0.77;;;2.00;99.90;;;;;;5059434;28;25153;-74
2023/03/07 11:04:56;;;;;;;3.42;1.00;;;2.10;99.90;;;;;;5059606;28;25085;-74
2023/03/07 11:07:27;;;;;;;1.85;0.90;;;2.00;99.90;;;;;;5059381;28;25128;-75
2023/03/07 11:09:56;;;;;;;6.75;1.65;;;2.00;99.90;;;;;;5059181;28;25104;-74
2023/03/07 11:12:28;;;;;;;2.63;1.00;;;2.00;99.90;;;;;;5059180;28;25061;-75
2023/03/07 11:15:15;;;;;;;1.30;0.60;;;2.00;99.90;;;;;;5059131;28;25084;-76
2023/03/07 11:17:47;;;;;;;1.48;0.75;;;2.00;99.90;;;;;;5059666;28;25051;-75
2023/03/07 11:20:25;;;;;;;1.23;0.60;;;1.90;99.90;;;;;;5059100;28;25047;-75
2023/03/07 11:23:30;;;;;;;1.40;0.57;;;1.90;99.90;;;;;;5057914;28;25096;-76
2023/03/07 11:26:22;;;;;;;1.73;0.70;;;1.90;99.90;;;;;;4998042;28;25124;-73
2023/03/07 11:29:11;;;;;;;1.10;0.60;;;1.80;99.90;;;;;;5054550;28;25080;-74
2023/03/07 11:31:58;;;;;;;1.40;0.80;;;1.80;99.90;;;;;;5056302;28;25137;-78
2023/03/07 11:34:44;;;;;;;1.98;1.02;;;1.80;99.90;;;;;;5059096;28;25078;-76
2023/03/07 11:37:38;;;;;;;2.55;1.23;;;1.80;99.90;;;;;;5059225;28;25073;-89
2023/03/07 11:40:21;;;;;;;1.98;0.70;;;1.80;99.90;;;;;;5058668;28;25106;-81
2023/03/07 11:43:26;;;;;;;2.03;0.63;;;1.80;99.90;;;;;;5054620;28;25119;-72
2023/03/07 11:46:05;;;;;;;1.58;0.80;;;1.80;99.90;;;;;;5023196;28;25119;-72
2023/03/07 11:49:05;;;;;;;1.65;0.50;;;1.80;99.90;;;;;;5038858;28;25094;-76
2023/03/07 11:51:51;;;;;;;1.60;0.70;;;1.80;99.90;;;;;;5022821;28;25072;-75
2023/03/07 11:54:31;;;;;;;1.42;0.60;;;1.70;99.90;;;;;;5038813;28;25099;-75
2023/03/07 11:57:25;;;;;;;1.75;0.60;;;1.70;99.90;;;;;;5038907;28;25077;-76
2023/03/07 12:00:12;;;;;;;3.33;0.98;;;1.70;99.90;;;;;;5039342;28;25080;-77
2023/03/07 12:02:51;;;;;;;1.50;0.82;;;1.70;99.90;;;;;;5039548;28;25054;-76
2023/03/07 12:05:34;;;;;;;1.48;0.70;;;1.80;99.90;;;;;;5038693;28;25056;-76
2023/03/07 12:08:14;;;;;;;1.63;1.02;;;1.80;99.90;;;;;;5038805;28;25136;-76
2023/03/07 12:11:03;;;;;;;1.50;0.85;;;1.90;99.90;;;;;;5038509;28;25075;-76
2023/03/07 12:14:02;;;;;;;2.58;1.02;;;2.00;99.90;;;;;;5038408;28;25062;-76
2023/03/07 12:16:51;;;;;;;1.85;1.00;;;2.00;99.90;;;;;;5038309;28;25129;-75
2023/03/07 12:19:42;;;;;;;1.67;0.70;;;2.10;99.90;;;;;;5038615;28;25094;-76
2023/03/07 12:22:26;;;;;;;2.67;0.82;;;2.20;99.90;;;;;;5038013;28;25082;-73
2023/03/07 12:25:13;;;;;;;1.40;0.60;;;2.30;99.90;;;;;;5037918;28;25073;-73
2023/03/07 12:27:45;;;;;;;;;;;2.30;99.90;;;;;;5038477;28;25061;-77
2023/03/07 12:30:54;;;;;;;1.50;0.57;;;2.30;99.90;;;;;;5038160;28;24087;-74
2023/03/07 12:33:33;;;;;;;1.17;0.55;;;2.20;99.90;;;;;;4996519;28;25063;-74
2023/03/07 12:36:16;;;;;;;1.33;0.60;;;2.20;99.90;;;;;;4997148;28;25062;-74
2023/03/07 12:39:16;;;;;;;1.63;0.90;;;2.10;99.90;;;;;;4996345;28;25066;-74
2023/03/07 12:42:04;;;;;;;1.23;0.70;;;2.00;99.90;;;;;;4997081;28;25070;-74
2023/03/07 12:45:09;;;;;;;2.03;1.10;;;1.90;99.90;;;;;;5031179;28;25067;-73
2023/03/07 12:48:00;;;;;;;1.10;0.57;;;1.80;99.90;;;;;;5035632;28;25081;-73
2023/03/07 12:50:54;;;;;;;3.88;0.85;;;1.80;99.90;;;;;;5019064;28;25132;-73
2023/03/07 12:53:29;;;;;;;;;;;1.80;99.90;;;;;;5035797;28;25087;-73
2023/03/07 12:56:08;;;;;;;1.15;0.70;;;1.80;99.90;;;;;;5036251;28;24128;-73
2023/03/07 12:59:01;;;;;;;2.10;1.08;;;1.80;99.90;;;;;;5035703;28;25062;-73
2023/03/07 13:01:37;;;;;;;1.92;0.80;;;1.90;99.90;;;;;;5035366;28;25066;-73
2023/03/07 13:04:28;;;;;;;1.83;0.85;;;1.90;99.90;;;;;;5035901;28;25066;-73
2023/03/07 13:07:13;;;;;;;1.10;0.85;;;1.90;99.90;;;;;;5043951;28;25068;-73
2023/03/07 13:09:43;;;;;;;1.25;0.63;;;1.90;99.90;;;;;;5057257;28;25061;-73
2023/03/07 13:12:22;;;;;;;1.23;0.65;;;1.90;99.90;;;;;;5056972;28;25060;-73
2023/03/07 13:15:02;;;;;;;7.65;0.90;;;2.00;99.90;;;;;;5056790;28;25103;-73
2023/03/07 13:17:30;;;;;;;1.20;0.70;;;2.00;99.90;;;;;;5055965;28;25068;-73
2023/03/07 13:20:14;;;;;;;1.20;0.75;;;2.00;99.90;;;;;;5056993;28;25069;-73
2023/03/07 13:22:42;;;;;;;1.63;1.17;;;2.10;99.90;;;;;;5056971;28;25068;-73
2023/03/07 13:25:34;;;;;;;3.50;1.30;;;2.10;99.90;;;;;;5057618;28;25120;-73
2023/03/07 13:28:05;;;;;;;1.33;0.65;;;2.20;99.90;;;;;;5056956;28;25128;-73